Terminal Aerodrome Forecast
Issued by NWS

Home | Current Version | Previous Version | Text Only | Print | Product List | Glossary On
Versions: 1 2 3 4 5 6 7 8 9 10 11 12 13 14 15 16 17 18 19 20
000
FTUS42 KTBW 192300
TAFPIE
TAF
KPIE 192338Z 2000/2024 06008KT 6SM SHRA SCT015 BKN035 OVC080
      TEMPO 2000/2003 2SM SHRA BKN020
     FM200600 11006KT P6SM VCSH BKN035 OVC080
     FM200900 10005KT P6SM VCSH BKN040 OVC100
     FM201800 24004KT P6SM VCSH BKN045 OVC080=

USA.gov is the U.S. government's official web portal to all federal, state and local government web resources and services.